sensor_id;sensor_type;location;lat;lon;timestamp;P1;durP1;ratioP1;P2;durP2;ratioP2
36585;SDS011;22591;48.314;11.562;2023-04-03T00:00:04;7.05;;;6.38;;
36585;SDS011;22591;48.314;11.562;2023-04-03T00:02:30;10.85;;;6.55;;
36585;SDS011;22591;48.314;11.562;2023-04-03T00:04:56;10.52;;;6.80;;
36585;SDS011;22591;48.314;11.562;2023-04-03T00:07:21;7.00;;;6.40;;
36585;SDS011;22591;48.314;11.562;2023-04-03T00:09:47;7.43;;;6.72;;
36585;SDS011;22591;48.314;11.562;2023-04-03T00:12:12;7.18;;;6.57;;
36585;SDS011;22591;48.314;11.562;2023-04-03T00:14:38;6.80;;;6.22;;
36585;SDS011;22591;48.314;11.562;2023-04-03T00:17:04;6.88;;;6.18;;
36585;SDS011;22591;48.314;11.562;2023-04-03T00:19:29;6.88;;;6.30;;
36585;SDS011;22591;48.314;11.562;2023-04-03T00:21:55;5.70;;;5.35;;
36585;SDS011;22591;48.314;11.562;2023-04-03T00:24:21;8.13;;;7.43;;
36585;SDS011;22591;48.314;11.562;2023-04-03T00:26:46;8.27;;;6.20;;
36585;SDS011;22591;48.314;11.562;2023-04-03T00:29:12;6.57;;;5.97;;
36585;SDS011;22591;48.314;11.562;2023-04-03T00:31:38;8.43;;;6.43;;
36585;SDS011;22591;48.314;11.562;2023-04-03T00:34:03;6.57;;;6.00;;
36585;SDS011;22591;48.314;11.562;2023-04-03T00:36:29;7.25;;;5.88;;
36585;SDS011;22591;48.314;11.562;2023-04-03T00:38:54;6.40;;;5.90;;
36585;SDS011;22591;48.314;11.562;2023-04-03T00:41:20;6.60;;;5.90;;
36585;SDS011;22591;48.314;11.562;2023-04-03T00:43:46;6.63;;;6.03;;
36585;SDS011;22591;48.314;11.562;2023-04-03T00:46:12;7.13;;;6.53;;
36585;SDS011;22591;48.314;11.562;2023-04-03T00:48:39;7.30;;;6.80;;
36585;SDS011;22591;48.314;11.562;2023-04-03T00:51:09;6.80;;;6.15;;
36585;SDS011;22591;48.314;11.562;2023-04-03T00:53:40;6.50;;;5.82;;
36585;SDS011;22591;48.314;11.562;2023-04-03T00:56:10;7.32;;;6.68;;
36585;SDS011;22591;48.314;11.562;2023-04-03T00:58:42;6.30;;;5.80;;
36585;SDS011;22591;48.314;11.562;2023-04-03T01:03:39;6.05;;;5.45;;
36585;SDS011;22591;48.314;11.562;2023-04-03T01:06:05;5.32;;;4.90;;
36585;SDS011;22591;48.314;11.562;2023-04-03T01:08:30;5.60;;;5.20;;
36585;SDS011;22591;48.314;11.562;2023-04-03T01:10:56;5.78;;;5.35;;
36585;SDS011;22591;48.314;11.562;2023-04-03T01:13:24;5.13;;;4.72;;
36585;SDS011;22591;48.314;11.562;2023-04-03T01:15:52;5.13;;;4.72;;
36585;SDS011;22591;48.314;11.562;2023-04-03T01:18:18;5.88;;;5.35;;
36585;SDS011;22591;48.314;11.562;2023-04-03T01:21:21;6.38;;;5.50;;
36585;SDS011;22591;48.314;11.562;2023-04-03T01:26:32;4.95;;;4.65;;
36585;SDS011;22591;48.314;11.562;2023-04-03T01:28:58;4.72;;;4.38;;
36585;SDS011;22591;48.314;11.562;2023-04-03T01:31:31;6.10;;;5.60;;
36585;SDS011;22591;48.314;11.562;2023-04-03T01:34:18;4.63;;;4.30;;
36585;SDS011;22591;48.314;11.562;2023-04-03T01:36:44;5.00;;;4.43;;
36585;SDS011;22591;48.314;11.562;2023-04-03T01:39:10;4.82;;;4.47;;
36585;SDS011;22591;48.314;11.562;2023-04-03T01:41:36;5.43;;;4.25;;
36585;SDS011;22591;48.314;11.562;2023-04-03T01:44:01;4.88;;;4.35;;
36585;SDS011;22591;48.314;11.562;2023-04-03T01:46:28;6.10;;;4.32;;
36585;SDS011;22591;48.314;11.562;2023-04-03T01:48:54;5.32;;;4.85;;
36585;SDS011;22591;48.314;11.562;2023-04-03T01:51:20;4.85;;;4.45;;
36585;SDS011;22591;48.314;11.562;2023-04-03T01:53:45;5.18;;;4.68;;
36585;SDS011;22591;48.314;11.562;2023-04-03T01:56:11;4.00;;;3.75;;
36585;SDS011;22591;48.314;11.562;2023-04-03T01:58:36;4.88;;;4.18;;
36585;SDS011;22591;48.314;11.562;2023-04-03T02:01:02;4.30;;;3.97;;
36585;SDS011;22591;48.314;11.562;2023-04-03T02:03:28;4.55;;;3.95;;
36585;SDS011;22591;48.314;11.562;2023-04-03T02:05:53;4.68;;;4.32;;
36585;SDS011;22591;48.314;11.562;2023-04-03T02:08:19;4.05;;;3.85;;
36585;SDS011;22591;48.314;11.562;2023-04-03T02:10:47;4.22;;;3.85;;
36585;SDS011;22591;48.314;11.562;2023-04-03T02:13:13;4.28;;;3.97;;
36585;SDS011;22591;48.314;11.562;2023-04-03T02:15:39;4.55;;;4.25;;
36585;SDS011;22591;48.314;11.562;2023-04-03T02:18:05;4.10;;;3.80;;
36585;SDS011;22591;48.314;11.562;2023-04-03T02:20:31;5.45;;;4.28;;
36585;SDS011;22591;48.314;11.562;2023-04-03T02:22:57;4.20;;;3.90;;
36585;SDS011;22591;48.314;11.562;2023-04-03T02:25:23;4.10;;;3.83;;
36585;SDS011;22591;48.314;11.562;2023-04-03T02:27:48;4.20;;;3.90;;
36585;SDS011;22591;48.314;11.562;2023-04-03T02:30:14;4.57;;;3.83;;
36585;SDS011;22591;48.314;11.562;2023-04-03T02:32:40;4.25;;;3.95;;
36585;SDS011;22591;48.314;11.562;2023-04-03T02:35:07;4.35;;;3.95;;
36585;SDS011;22591;48.314;11.562;2023-04-03T02:37:33;4.57;;;4.20;;
36585;SDS011;22591;48.314;11.562;2023-04-03T02:39:59;4.18;;;3.97;;
36585;SDS011;22591;48.314;11.562;2023-04-03T02:42:25;4.40;;;4.10;;
36585;SDS011;22591;48.314;11.562;2023-04-03T02:44:51;4.03;;;3.78;;
36585;SDS011;22591;48.314;11.562;2023-04-03T02:47:16;4.93;;;4.63;;
36585;SDS011;22591;48.314;11.562;2023-04-03T02:49:42;4.95;;;4.47;;
36585;SDS011;22591;48.314;11.562;2023-04-03T02:52:10;4.68;;;3.97;;
36585;SDS011;22591;48.314;11.562;2023-04-03T02:54:35;4.82;;;4.45;;
36585;SDS011;22591;48.314;11.562;2023-04-03T02:57:01;4.80;;;4.40;;
36585;SDS011;22591;48.314;11.562;2023-04-03T02:59:26;4.15;;;3.85;;
36585;SDS011;22591;48.314;11.562;2023-04-03T03:01:52;5.70;;;3.95;;
36585;SDS011;22591;48.314;11.562;2023-04-03T03:04:18;5.20;;;4.80;;
36585;SDS011;22591;48.314;11.562;2023-04-03T03:06:43;4.70;;;4.30;;
36585;SDS011;22591;48.314;11.562;2023-04-03T03:09:09;5.00;;;4.60;;
36585;SDS011;22591;48.314;11.562;2023-04-03T03:11:34;5.10;;;4.80;;
36585;SDS011;22591;48.314;11.562;2023-04-03T03:14:00;5.13;;;4.45;;
36585;SDS011;22591;48.314;11.562;2023-04-03T03:16:26;4.95;;;4.57;;
36585;SDS011;22591;48.314;11.562;2023-04-03T03:18:51;5.57;;;5.07;;
36585;SDS011;22591;48.314;11.562;2023-04-03T03:21:17;5.47;;;4.07;;
36585;SDS011;22591;48.314;11.562;2023-04-03T03:23:42;4.43;;;4.07;;
36585;SDS011;22591;48.314;11.562;2023-04-03T03:26:08;4.80;;;4.40;;
36585;SDS011;22591;48.314;11.562;2023-04-03T03:28:35;5.82;;;4.75;;
36585;SDS011;22591;48.314;11.562;2023-04-03T03:31:03;4.75;;;4.43;;
36585;SDS011;22591;48.314;11.562;2023-04-03T03:33:29;5.68;;;5.07;;
36585;SDS011;22591;48.314;11.562;2023-04-03T03:35:55;5.05;;;4.75;;
36585;SDS011;22591;48.314;11.562;2023-04-03T03:38:21;6.35;;;5.03;;
36585;SDS011;22591;48.314;11.562;2023-04-03T03:40:47;4.70;;;4.40;;
36585;SDS011;22591;48.314;11.562;2023-04-03T03:43:13;5.22;;;4.82;;
36585;SDS011;22591;48.314;11.562;2023-04-03T03:45:39;5.32;;;4.82;;
36585;SDS011;22591;48.314;11.562;2023-04-03T03:48:05;5.07;;;4.60;;
36585;SDS011;22591;48.314;11.562;2023-04-03T03:50:30;5.18;;;4.78;;
36585;SDS011;22591;48.314;11.562;2023-04-03T03:52:56;4.90;;;4.57;;
36585;SDS011;22591;48.314;11.562;2023-04-03T03:55:21;5.68;;;5.15;;
36585;SDS011;22591;48.314;11.562;2023-04-03T03:57:47;6.15;;;5.07;;
36585;SDS011;22591;48.314;11.562;2023-04-03T04:00:13;5.10;;;4.60;;
36585;SDS011;22591;48.314;11.562;2023-04-03T04:02:41;4.88;;;4.47;;
36585;SDS011;22591;48.314;11.562;2023-04-03T04:05:07;5.53;;;5.03;;
36585;SDS011;22591;48.314;11.562;2023-04-03T04:07:34;4.65;;;4.32;;
36585;SDS011;22591;48.314;11.562;2023-04-03T04:09:59;5.63;;;5.13;;
36585;SDS011;22591;48.314;11.562;2023-04-03T04:12:26;5.57;;;5.07;;
36585;SDS011;22591;48.314;11.562;2023-04-03T04:14:53;6.28;;;4.63;;
36585;SDS011;22591;48.314;11.562;2023-04-03T04:17:18;5.57;;;5.15;;
36585;SDS011;22591;48.314;11.562;2023-04-03T04:19:46;5.03;;;4.70;;
36585;SDS011;22591;48.314;11.562;2023-04-03T04:22:11;5.18;;;4.78;;
36585;SDS011;22591;48.314;11.562;2023-04-03T04:24:37;5.13;;;4.80;;
36585;SDS011;22591;48.314;11.562;2023-04-03T04:27:03;5.88;;;5.38;;
36585;SDS011;22591;48.314;11.562;2023-04-03T04:29:30;5.32;;;4.93;;
36585;SDS011;22591;48.314;11.562;2023-04-03T04:32:02;5.47;;;5.07;;
36585;SDS011;22591;48.314;11.562;2023-04-03T04:34:30;8.68;;;5.63;;
36585;SDS011;22591;48.314;11.562;2023-04-03T04:36:57;5.28;;;4.82;;
36585;SDS011;22591;48.314;11.562;2023-04-03T04:39:22;5.88;;;5.13;;
36585;SDS011;22591;48.314;11.562;2023-04-03T04:41:49;5.43;;;5.03;;
36585;SDS011;22591;48.314;11.562;2023-04-03T04:44:15;4.90;;;4.60;;
36585;SDS011;22591;48.314;11.562;2023-04-03T04:46:42;5.18;;;4.78;;
36585;SDS011;22591;48.314;11.562;2023-04-03T04:49:07;5.00;;;4.60;;
36585;SDS011;22591;48.314;11.562;2023-04-03T04:51:34;7.05;;;5.75;;
36585;SDS011;22591;48.314;11.562;2023-04-03T04:54:00;5.85;;;5.15;;
36585;SDS011;22591;48.314;11.562;2023-04-03T04:56:27;9.38;;;5.13;;
36585;SDS011;22591;48.314;11.562;2023-04-03T04:58:52;5.90;;;5.22;;
36585;SDS011;22591;48.314;11.562;2023-04-03T05:01:18;5.68;;;5.18;;
36585;SDS011;22591;48.314;11.562;2023-04-03T05:03:43;7.80;;;5.43;;
36585;SDS011;22591;48.314;11.562;2023-04-03T05:06:09;5.63;;;5.22;;
36585;SDS011;22591;48.314;11.562;2023-04-03T05:08:36;7.45;;;5.70;;
36585;SDS011;22591;48.314;11.562;2023-04-03T05:11:03;5.70;;;5.30;;
36585;SDS011;22591;48.314;11.562;2023-04-03T05:13:29;5.97;;;5.47;;
36585;SDS011;22591;48.314;11.562;2023-04-03T05:15:56;6.13;;;5.53;;
36585;SDS011;22591;48.314;11.562;2023-04-03T05:18:22;6.13;;;5.63;;
36585;SDS011;22591;48.314;11.562;2023-04-03T05:20:49;6.15;;;5.55;;
36585;SDS011;22591;48.314;11.562;2023-04-03T05:23:18;6.85;;;6.18;;
36585;SDS011;22591;48.314;11.562;2023-04-03T05:25:45;8.90;;;5.55;;
36585;SDS011;22591;48.314;11.562;2023-04-03T05:28:12;5.70;;;5.30;;
36585;SDS011;22591;48.314;11.562;2023-04-03T05:30:38;6.35;;;5.75;;
36585;SDS011;22591;48.314;11.562;2023-04-03T05:33:05;6.15;;;5.65;;
36585;SDS011;22591;48.314;11.562;2023-04-03T05:35:31;6.85;;;5.75;;
36585;SDS011;22591;48.314;11.562;2023-04-03T05:37:58;6.97;;;5.80;;
36585;SDS011;22591;48.314;11.562;2023-04-03T05:40:23;6.38;;;5.88;;
36585;SDS011;22591;48.314;11.562;2023-04-03T05:42:50;6.65;;;6.05;;
36585;SDS011;22591;48.314;11.562;2023-04-03T05:45:16;5.28;;;4.85;;
36585;SDS011;22591;48.314;11.562;2023-04-03T05:47:43;5.55;;;5.05;;
36585;SDS011;22591;48.314;11.562;2023-04-03T05:50:08;4.93;;;4.50;;
36585;SDS011;22591;48.314;11.562;2023-04-03T05:52:38;5.60;;;5.10;;
36585;SDS011;22591;48.314;11.562;2023-04-03T05:55:08;5.35;;;4.85;;
36585;SDS011;22591;48.314;11.562;2023-04-03T05:57:35;6.47;;;5.30;;
36585;SDS011;22591;48.314;11.562;2023-04-03T06:00:03;5.90;;;5.40;;
36585;SDS011;22591;48.314;11.562;2023-04-03T06:02:32;5.50;;;5.03;;
36585;SDS011;22591;48.314;11.562;2023-04-03T06:04:59;7.00;;;5.20;;
36585;SDS011;22591;48.314;11.562;2023-04-03T06:07:26;5.53;;;5.13;;
36585;SDS011;22591;48.314;11.562;2023-04-03T06:09:53;6.57;;;5.97;;
36585;SDS011;22591;48.314;11.562;2023-04-03T06:12:20;5.38;;;5.00;;
36585;SDS011;22591;48.314;11.562;2023-04-03T06:14:48;6.13;;;5.43;;
36585;SDS011;22591;48.314;11.562;2023-04-03T06:17:14;6.72;;;5.65;;
36585;SDS011;22591;48.314;11.562;2023-04-03T06:19:42;6.50;;;5.65;;
36585;SDS011;22591;48.314;11.562;2023-04-03T06:22:07;6.05;;;5.45;;
36585;SDS011;22591;48.314;11.562;2023-04-03T06:24:34;6.55;;;5.60;;
36585;SDS011;22591;48.314;11.562;2023-04-03T06:27:01;5.72;;;5.28;;
36585;SDS011;22591;48.314;11.562;2023-04-03T06:29:28;6.72;;;6.13;;
36585;SDS011;22591;48.314;11.562;2023-04-03T06:31:54;6.35;;;5.82;;
36585;SDS011;22591;48.314;11.562;2023-04-03T06:34:19;6.15;;;5.50;;
36585;SDS011;22591;48.314;11.562;2023-04-03T06:36:46;6.07;;;5.03;;
36585;SDS011;22591;48.314;11.562;2023-04-03T06:39:15;6.90;;;6.20;;
36585;SDS011;22591;48.314;11.562;2023-04-03T06:41:42;6.65;;;6.15;;
36585;SDS011;22591;48.314;11.562;2023-04-03T06:44:10;8.73;;;6.50;;
36585;SDS011;22591;48.314;11.562;2023-04-03T06:49:07;6.38;;;5.80;;
36585;SDS011;22591;48.314;11.562;2023-04-03T06:51:35;6.03;;;5.45;;
36585;SDS011;22591;48.314;11.562;2023-04-03T06:54:01;6.85;;;6.18;;
36585;SDS011;22591;48.314;11.562;2023-04-03T06:56:29;6.35;;;5.22;;
36585;SDS011;22591;48.314;11.562;2023-04-03T06:58:56;5.95;;;5.45;;
36585;SDS011;22591;48.314;11.562;2023-04-03T07:01:24;7.30;;;6.75;;
36585;SDS011;22591;48.314;11.562;2023-04-03T07:03:52;6.10;;;5.60;;
36585;SDS011;22591;48.314;11.562;2023-04-03T07:06:19;8.98;;;6.95;;
36585;SDS011;22591;48.314;11.562;2023-04-03T07:08:46;8.48;;;5.97;;
36585;SDS011;22591;48.314;11.562;2023-04-03T07:11:15;6.38;;;5.78;;
36585;SDS011;22591;48.314;11.562;2023-04-03T07:13:42;6.93;;;6.25;;
36585;SDS011;22591;48.314;11.562;2023-04-03T07:16:09;5.90;;;5.50;;
36585;SDS011;22591;48.314;11.562;2023-04-03T07:18:36;6.72;;;5.95;;
36585;SDS011;22591;48.314;11.562;2023-04-03T07:21:03;7.70;;;5.78;;
36585;SDS011;22591;48.314;11.562;2023-04-03T07:23:29;8.38;;;6.13;;
36585;SDS011;22591;48.314;11.562;2023-04-03T07:25:55;7.07;;;5.43;;
36585;SDS011;22591;48.314;11.562;2023-04-03T07:28:22;5.95;;;5.40;;
36585;SDS011;22591;48.314;11.562;2023-04-03T07:31:01;6.70;;;6.10;;
36585;SDS011;22591;48.314;11.562;2023-04-03T07:33:34;7.68;;;6.43;;
36585;SDS011;22591;48.314;11.562;2023-04-03T07:36:01;7.60;;;6.78;;
36585;SDS011;22591;48.314;11.562;2023-04-03T07:38:27;5.93;;;5.43;;
36585;SDS011;22591;48.314;11.562;2023-04-03T07:40:54;6.57;;;5.93;;
36585;SDS011;22591;48.314;11.562;2023-04-03T07:43:20;6.13;;;5.63;;
36585;SDS011;22591;48.314;11.562;2023-04-03T07:45:47;6.75;;;6.13;;
36585;SDS011;22591;48.314;11.562;2023-04-03T07:48:15;5.40;;;5.00;;
36585;SDS011;22591;48.314;11.562;2023-04-03T07:50:50;5.80;;;5.35;;
36585;SDS011;22591;48.314;11.562;2023-04-03T07:53:16;6.32;;;5.63;;
36585;SDS011;22591;48.314;11.562;2023-04-03T07:55:45;5.85;;;5.40;;
36585;SDS011;22591;48.314;11.562;2023-04-03T07:58:16;6.55;;;5.18;;
36585;SDS011;22591;48.314;11.562;2023-04-03T08:00:43;6.00;;;5.60;;
36585;SDS011;22591;48.314;11.562;2023-04-03T08:03:10;6.93;;;5.72;;
36585;SDS011;22591;48.314;11.562;2023-04-03T08:05:43;10.15;;;5.63;;
36585;SDS011;22591;48.314;11.562;2023-04-03T08:08:11;5.95;;;5.45;;
36585;SDS011;22591;48.314;11.562;2023-04-03T08:10:39;6.20;;;5.60;;
36585;SDS011;22591;48.314;11.562;2023-04-03T08:13:05;5.68;;;5.28;;
36585;SDS011;22591;48.314;11.562;2023-04-03T08:15:31;5.78;;;5.28;;
36585;SDS011;22591;48.314;11.562;2023-04-03T08:17:59;5.50;;;5.10;;
36585;SDS011;22591;48.314;11.562;2023-04-03T08:20:25;5.85;;;5.38;;
36585;SDS011;22591;48.314;11.562;2023-04-03T08:22:52;7.25;;;5.43;;
36585;SDS011;22591;48.314;11.562;2023-04-03T08:25:18;5.22;;;4.85;;
36585;SDS011;22591;48.314;11.562;2023-04-03T08:27:45;5.35;;;4.55;;
36585;SDS011;22591;48.314;11.562;2023-04-03T08:30:11;5.25;;;4.07;;
36585;SDS011;22591;48.314;11.562;2023-04-03T08:32:38;5.30;;;4.90;;
36585;SDS011;22591;48.314;11.562;2023-04-03T08:35:06;6.05;;;4.45;;
36585;SDS011;22591;48.314;11.562;2023-04-03T08:37:34;5.70;;;5.05;;
36585;SDS011;22591;48.314;11.562;2023-04-03T08:40:04;5.25;;;4.82;;
36585;SDS011;22591;48.314;11.562;2023-04-03T08:45:29;5.00;;;4.55;;
36585;SDS011;22591;48.314;11.562;2023-04-03T08:48:20;5.28;;;4.78;;
36585;SDS011;22591;48.314;11.562;2023-04-03T08:50:51;4.70;;;4.40;;
36585;SDS011;22591;48.314;11.562;2023-04-03T08:53:21;5.45;;;4.57;;
36585;SDS011;22591;48.314;11.562;2023-04-03T08:55:54;5.80;;;5.30;;
36585;SDS011;22591;48.314;11.562;2023-04-03T08:58:21;4.97;;;4.50;;
36585;SDS011;22591;48.314;11.562;2023-04-03T09:00:50;8.77;;;4.95;;
36585;SDS011;22591;48.314;11.562;2023-04-03T09:03:17;4.50;;;4.20;;
36585;SDS011;22591;48.314;11.562;2023-04-03T09:11:26;5.00;;;4.47;;
36585;SDS011;22591;48.314;11.562;2023-04-03T09:17:21;4.43;;;4.13;;
36585;SDS011;22591;48.314;11.562;2023-04-03T09:20:01;8.05;;;4.32;;
36585;SDS011;22591;48.314;11.562;2023-04-03T09:22:36;4.60;;;4.30;;
36585;SDS011;22591;48.314;11.562;2023-04-03T09:25:13;4.47;;;4.18;;
36585;SDS011;22591;48.314;11.562;2023-04-03T09:27:45;4.10;;;3.80;;
36585;SDS011;22591;48.314;11.562;2023-04-03T09:30:28;3.50;;;3.20;;
36585;SDS011;22591;48.314;11.562;2023-04-03T09:32:56;4.30;;;3.95;;
36585;SDS011;22591;48.314;11.562;2023-04-03T09:35:26;7.43;;;4.10;;
36585;SDS011;22591;48.314;11.562;2023-04-03T09:37:53;5.15;;;4.10;;
36585;SDS011;22591;48.314;11.562;2023-04-03T09:42:52;4.40;;;4.03;;
36585;SDS011;22591;48.314;11.562;2023-04-03T09:45:30;4.20;;;3.88;;
36585;SDS011;22591;48.314;11.562;2023-04-03T09:50:54;4.75;;;3.78;;
36585;SDS011;22591;48.314;11.562;2023-04-03T09:53:35;4.15;;;3.30;;
36585;SDS011;22591;48.314;11.562;2023-04-03T09:56:01;4.40;;;3.80;;
36585;SDS011;22591;48.314;11.562;2023-04-03T10:01:32;6.93;;;3.42;;
36585;SDS011;22591;48.314;11.562;2023-04-03T10:04:16;3.05;;;2.80;;
36585;SDS011;22591;48.314;11.562;2023-04-03T10:06:55;3.33;;;3.13;;
36585;SDS011;22591;48.314;11.562;2023-04-03T10:14:32;3.25;;;2.95;;
36585;SDS011;22591;48.314;11.562;2023-04-03T10:19:57;3.60;;;2.78;;
36585;SDS011;22591;48.314;11.562;2023-04-03T10:25:27;2.53;;;2.33;;
36585;SDS011;22591;48.314;11.562;2023-04-03T10:28:08;2.35;;;2.15;;
36585;SDS011;22591;48.314;11.562;2023-04-03T10:42:28;4.45;;;2.78;;
36585;SDS011;22591;48.314;11.562;2023-04-03T10:45:24;3.08;;;2.67;;
36585;SDS011;22591;48.314;11.562;2023-04-03T10:51:14;2.60;;;2.40;;
36585;SDS011;22591;48.314;11.562;2023-04-03T10:54:16;2.38;;;2.17;;
36585;SDS011;22591;48.314;11.562;2023-04-03T10:56:51;2.47;;;2.25;;
36585;SDS011;22591;48.314;11.562;2023-04-03T11:02:24;2.30;;;2.10;;
36585;SDS011;22591;48.314;11.562;2023-04-03T11:07:45;3.92;;;2.33;;
36585;SDS011;22591;48.314;11.562;2023-04-03T11:10:18;3.50;;;2.38;;
36585;SDS011;22591;48.314;11.562;2023-04-03T11:13:03;2.50;;;2.30;;
36585;SDS011;22591;48.314;11.562;2023-04-03T11:15:40;3.67;;;2.05;;
36585;SDS011;22591;48.314;11.562;2023-04-03T11:18:12;2.60;;;2.38;;
36585;SDS011;22591;48.314;11.562;2023-04-03T11:20:53;5.63;;;2.90;;
36585;SDS011;22591;48.314;11.562;2023-04-03T11:23:31;2.40;;;2.20;;
36585;SDS011;22591;48.314;11.562;2023-04-03T11:26:24;3.65;;;2.05;;
36585;SDS011;22591;48.314;11.562;2023-04-03T11:29:01;2.78;;;2.10;;
36585;SDS011;22591;48.314;11.562;2023-04-03T11:34:45;2.17;;;2.08;;
36585;SDS011;22591;48.314;11.562;2023-04-03T11:40:05;2.35;;;2.25;;
36585;SDS011;22591;48.314;11.562;2023-04-03T11:42:52;2.10;;;2.00;;
36585;SDS011;22591;48.314;11.562;2023-04-03T11:47:58;2.72;;;1.77;;
36585;SDS011;22591;48.314;11.562;2023-04-03T11:50:58;2.85;;;2.10;;
36585;SDS011;22591;48.314;11.562;2023-04-03T11:56:04;2.95;;;2.10;;
36585;SDS011;22591;48.314;11.562;2023-04-03T12:04:25;2.92;;;2.30;;
36585;SDS011;22591;48.314;11.562;2023-04-03T12:07:00;1.90;;;1.80;;
36585;SDS011;22591;48.314;11.562;2023-04-03T12:15:16;2.20;;;2.00;;
36585;SDS011;22591;48.314;11.562;2023-04-03T12:17:44;2.08;;;1.52;;
36585;SDS011;22591;48.314;11.562;2023-04-03T12:23:28;2.05;;;1.92;;
36585;SDS011;22591;48.314;11.562;2023-04-03T12:26:06;2.17;;;1.98;;
36585;SDS011;22591;48.314;11.562;2023-04-03T12:28:48;2.35;;;1.65;;
36585;SDS011;22591;48.314;11.562;2023-04-03T12:31:16;2.17;;;1.98;;
36585;SDS011;22591;48.314;11.562;2023-04-03T12:37:09;2.00;;;1.90;;
36585;SDS011;22591;48.314;11.562;2023-04-03T12:40:24;1.90;;;1.80;;
36585;SDS011;22591;48.314;11.562;2023-04-03T12:48:57;2.10;;;1.92;;
36585;SDS011;22591;48.314;11.562;2023-04-03T12:54:00;2.88;;;2.15;;
36585;SDS011;22591;48.314;11.562;2023-04-03T12:56:50;2.40;;;2.30;;
36585;SDS011;22591;48.314;11.562;2023-04-03T12:59:23;2.55;;;2.03;;
36585;SDS011;22591;48.314;11.562;2023-04-03T13:01:56;2.05;;;1.95;;
36585;SDS011;22591;48.314;11.562;2023-04-03T13:04:24;2.17;;;1.98;;
36585;SDS011;22591;48.314;11.562;2023-04-03T13:06:51;2.58;;;1.90;;
36585;SDS011;22591;48.314;11.562;2023-04-03T13:09:21;2.53;;;1.92;;
36585;SDS011;22591;48.314;11.562;2023-04-03T13:11:49;1.70;;;1.60;;
36585;SDS011;22591;48.314;11.562;2023-04-03T13:14:18;1.70;;;1.60;;
36585;SDS011;22591;48.314;11.562;2023-04-03T13:19:29;2.00;;;1.80;;
36585;SDS011;22591;48.314;11.562;2023-04-03T13:22:02;3.88;;;1.90;;
36585;SDS011;22591;48.314;11.562;2023-04-03T13:24:30;5.80;;;1.65;;
36585;SDS011;22591;48.314;11.562;2023-04-03T13:27:00;2.22;;;1.58;;
36585;SDS011;22591;48.314;11.562;2023-04-03T13:29:29;2.00;;;1.88;;
36585;SDS011;22591;48.314;11.562;2023-04-03T13:31:58;2.50;;;1.70;;
36585;SDS011;22591;48.314;11.562;2023-04-03T13:34:26;2.15;;;1.95;;
36585;SDS011;22591;48.314;11.562;2023-04-03T13:37:30;2.15;;;1.90;;
36585;SDS011;22591;48.314;11.562;2023-04-03T13:40:00;2.38;;;1.90;;
36585;SDS011;22591;48.314;11.562;2023-04-03T13:42:34;2.30;;;2.10;;
36585;SDS011;22591;48.314;11.562;2023-04-03T13:45:09;3.28;;;1.95;;
36585;SDS011;22591;48.314;11.562;2023-04-03T13:47:42;1.98;;;1.80;;
36585;SDS011;22591;48.314;11.562;2023-04-03T13:50:14;1.85;;;1.63;;
36585;SDS011;22591;48.314;11.562;2023-04-03T13:52:49;2.50;;;1.95;;
36585;SDS011;22591;48.314;11.562;2023-04-03T13:55:21;1.63;;;1.48;;
36585;SDS011;22591;48.314;11.562;2023-04-03T13:57:55;1.58;;;1.30;;
36585;SDS011;22591;48.314;11.562;2023-04-03T14:02:59;2.25;;;1.77;;
36585;SDS011;22591;48.314;11.562;2023-04-03T14:05:26;1.30;;;1.20;;
36585;SDS011;22591;48.314;11.562;2023-04-03T14:07:58;1.20;;;1.10;;
36585;SDS011;22591;48.314;11.562;2023-04-03T14:10:29;2.25;;;1.63;;
36585;SDS011;22591;48.314;11.562;2023-04-03T14:12:56;2.58;;;1.15;;
36585;SDS011;22591;48.314;11.562;2023-04-03T14:15:23;3.20;;;1.60;;
36585;SDS011;22591;48.314;11.562;2023-04-03T14:17:51;1.50;;;1.40;;
36585;SDS011;22591;48.314;11.562;2023-04-03T14:20:17;3.42;;;1.58;;
36585;SDS011;22591;48.314;11.562;2023-04-03T14:22:49;1.17;;;1.10;;
36585;SDS011;22591;48.314;11.562;2023-04-03T14:25:16;1.65;;;1.20;;
36585;SDS011;22591;48.314;11.562;2023-04-03T14:27:44;1.58;;;1.48;;
36585;SDS011;22591;48.314;11.562;2023-04-03T14:30:15;1.45;;;1.33;;
36585;SDS011;22591;48.314;11.562;2023-04-03T14:32:45;2.63;;;1.53;;
36585;SDS011;22591;48.314;11.562;2023-04-03T14:35:12;1.27;;;1.17;;
36585;SDS011;22591;48.314;11.562;2023-04-03T14:37:38;1.40;;;1.30;;
36585;SDS011;22591;48.314;11.562;2023-04-03T14:40:04;1.60;;;1.50;;
36585;SDS011;22591;48.314;11.562;2023-04-03T14:42:33;1.65;;;1.25;;
36585;SDS011;22591;48.314;11.562;2023-04-03T14:45:03;1.35;;;1.25;;
36585;SDS011;22591;48.314;11.562;2023-04-03T14:47:32;1.60;;;1.50;;
36585;SDS011;22591;48.314;11.562;2023-04-03T14:50:00;1.70;;;1.60;;
36585;SDS011;22591;48.314;11.562;2023-04-03T14:52:31;1.70;;;1.60;;
36585;SDS011;22591;48.314;11.562;2023-04-03T14:54:59;5.40;;;1.75;;
36585;SDS011;22591;48.314;11.562;2023-04-03T14:57:27;1.17;;;1.08;;
36585;SDS011;22591;48.314;11.562;2023-04-03T14:59:54;1.55;;;1.38;;
36585;SDS011;22591;48.314;11.562;2023-04-03T15:04:51;2.40;;;1.38;;
36585;SDS011;22591;48.314;11.562;2023-04-03T15:07:17;3.42;;;1.52;;
36585;SDS011;22591;48.314;11.562;2023-04-03T15:09:43;2.47;;;1.67;;
36585;SDS011;22591;48.314;11.562;2023-04-03T15:12:09;4.55;;;1.85;;
36585;SDS011;22591;48.314;11.562;2023-04-03T15:14:35;1.27;;;1.27;;
36585;SDS011;22591;48.314;11.562;2023-04-03T15:17:01;4.30;;;1.70;;
36585;SDS011;22591;48.314;11.562;2023-04-03T15:19:30;1.50;;;1.40;;
36585;SDS011;22591;48.314;11.562;2023-04-03T15:22:02;1.77;;;1.40;;
36585;SDS011;22591;48.314;11.562;2023-04-03T15:24:27;1.65;;;1.38;;
36585;SDS011;22591;48.314;11.562;2023-04-03T15:26:53;1.65;;;1.55;;
36585;SDS011;22591;48.314;11.562;2023-04-03T15:29:20;1.50;;;1.50;;
36585;SDS011;22591;48.314;11.562;2023-04-03T15:31:46;1.50;;;1.40;;
36585;SDS011;22591;48.314;11.562;2023-04-03T15:34:14;2.90;;;2.03;;
36585;SDS011;22591;48.314;11.562;2023-04-03T15:36:42;1.85;;;1.75;;
36585;SDS011;22591;48.314;11.562;2023-04-03T15:39:07;1.98;;;1.88;;
36585;SDS011;22591;48.314;11.562;2023-04-03T15:41:33;1.85;;;1.50;;
36585;SDS011;22591;48.314;11.562;2023-04-03T15:43:58;1.98;;;1.63;;
36585;SDS011;22591;48.314;11.562;2023-04-03T15:46:24;3.08;;;1.88;;
36585;SDS011;22591;48.314;11.562;2023-04-03T15:48:51;2.05;;;1.70;;
36585;SDS011;22591;48.314;11.562;2023-04-03T15:51:16;2.50;;;1.92;;
36585;SDS011;22591;48.314;11.562;2023-04-03T15:53:42;2.92;;;1.98;;
36585;SDS011;22591;48.314;11.562;2023-04-03T15:56:08;1.60;;;1.50;;
36585;SDS011;22591;48.314;11.562;2023-04-03T15:58:35;1.83;;;1.73;;
36585;SDS011;22591;48.314;11.562;2023-04-03T16:01:01;1.60;;;1.50;;
36585;SDS011;22591;48.314;11.562;2023-04-03T16:03:27;2.45;;;2.20;;
36585;SDS011;22591;48.314;11.562;2023-04-03T16:05:54;1.75;;;1.65;;
36585;SDS011;22591;48.314;11.562;2023-04-03T16:08:20;1.55;;;1.38;;
36585;SDS011;22591;48.314;11.562;2023-04-03T16:10:46;3.17;;;1.90;;
36585;SDS011;22591;48.314;11.562;2023-04-03T16:13:13;1.63;;;1.52;;
36585;SDS011;22591;48.314;11.562;2023-04-03T16:15:40;3.97;;;1.83;;
36585;SDS011;22591;48.314;11.562;2023-04-03T16:18:07;1.88;;;1.63;;
36585;SDS011;22591;48.314;11.562;2023-04-03T16:20:34;2.60;;;2.00;;
36585;SDS011;22591;48.314;11.562;2023-04-03T16:23:01;2.58;;;1.58;;
36585;SDS011;22591;48.314;11.562;2023-04-03T16:25:27;4.10;;;1.80;;
36585;SDS011;22591;48.314;11.562;2023-04-03T16:27:53;2.25;;;1.60;;